sensor_id;sensor_type;location;lat;lon;timestamp;P1;durP1;ratioP1;P2;durP2;ratioP2
31091;SDS011;67728;53.122;12.776;2023-10-13T00:00:38;1480.40;;;948.87;;
31091;SDS011;67728;53.122;12.776;2023-10-13T00:02:10;1473.27;;;944.33;;
31091;SDS011;67728;53.122;12.776;2023-10-13T00:03:45;1480.60;;;947.00;;
31091;SDS011;67728;53.122;12.776;2023-10-13T00:05:16;1488.27;;;954.70;;
31091;SDS011;67728;53.122;12.776;2023-10-13T00:06:47;1482.17;;;947.13;;
31091;SDS011;67728;53.122;12.776;2023-10-13T00:08:19;1503.57;;;936.10;;
31091;SDS011;67728;53.122;12.776;2023-10-13T00:09:50;1504.97;;;914.63;;
31091;SDS011;67728;53.122;12.776;2023-10-13T00:11:22;1504.43;;;911.50;;
31091;SDS011;67728;53.122;12.776;2023-10-13T00:12:53;1504.63;;;922.33;;
31091;SDS011;67728;53.122;12.776;2023-10-13T00:14:24;1504.50;;;909.30;;
31091;SDS011;67728;53.122;12.776;2023-10-13T00:16:03;1505.40;;;915.37;;
31091;SDS011;67728;53.122;12.776;2023-10-13T00:17:39;1509.50;;;921.30;;
31091;SDS011;67728;53.122;12.776;2023-10-13T00:19:13;1512.67;;;911.00;;
31091;SDS011;67728;53.122;12.776;2023-10-13T00:20:44;1507.70;;;911.50;;
31091;SDS011;67728;53.122;12.776;2023-10-13T00:22:19;1510.03;;;909.53;;
31091;SDS011;67728;53.122;12.776;2023-10-13T00:23:50;1515.17;;;912.50;;
31091;SDS011;67728;53.122;12.776;2023-10-13T00:25:24;1503.97;;;911.90;;
31091;SDS011;67728;53.122;12.776;2023-10-13T00:26:57;1512.03;;;926.63;;
31091;SDS011;67728;53.122;12.776;2023-10-13T00:28:31;1494.07;;;915.23;;
31091;SDS011;67728;53.122;12.776;2023-10-13T00:30:06;1505.73;;;916.10;;
31091;SDS011;67728;53.122;12.776;2023-10-13T00:31:52;1508.90;;;945.43;;
31091;SDS011;67728;53.122;12.776;2023-10-13T00:33:22;1505.33;;;931.90;;
31091;SDS011;67728;53.122;12.776;2023-10-13T00:34:57;1505.50;;;940.60;;
31091;SDS011;67728;53.122;12.776;2023-10-13T00:36:27;1510.00;;;936.93;;
31091;SDS011;67728;53.122;12.776;2023-10-13T00:38:02;1505.13;;;933.63;;
31091;SDS011;67728;53.122;12.776;2023-10-13T00:39:34;1517.23;;;942.93;;
31091;SDS011;67728;53.122;12.776;2023-10-13T00:41:07;1514.10;;;933.93;;
31091;SDS011;67728;53.122;12.776;2023-10-13T00:42:44;1515.67;;;933.03;;
31091;SDS011;67728;53.122;12.776;2023-10-13T00:44:21;1511.13;;;930.50;;
31091;SDS011;67728;53.122;12.776;2023-10-13T00:45:59;1503.60;;;926.07;;
31091;SDS011;67728;53.122;12.776;2023-10-13T00:47:36;1501.50;;;942.83;;
31091;SDS011;67728;53.122;12.776;2023-10-13T00:49:18;1500.00;;;943.50;;
31091;SDS011;67728;53.122;12.776;2023-10-13T00:50:53;1497.33;;;948.33;;
31091;SDS011;67728;53.122;12.776;2023-10-13T00:52:26;1487.57;;;924.37;;
31091;SDS011;67728;53.122;12.776;2023-10-13T00:54:00;1502.83;;;953.00;;
31091;SDS011;67728;53.122;12.776;2023-10-13T00:55:37;1508.10;;;955.13;;
31091;SDS011;67728;53.122;12.776;2023-10-13T00:57:11;1497.83;;;950.80;;
31091;SDS011;67728;53.122;12.776;2023-10-13T00:58:56;1496.47;;;952.50;;
31091;SDS011;67728;53.122;12.776;2023-10-13T01:00:32;1495.20;;;949.43;;
31091;SDS011;67728;53.122;12.776;2023-10-13T01:02:16;1509.87;;;952.93;;
31091;SDS011;67728;53.122;12.776;2023-10-13T01:04:08;1497.43;;;953.20;;
31091;SDS011;67728;53.122;12.776;2023-10-13T01:05:42;1513.67;;;962.83;;
31091;SDS011;67728;53.122;12.776;2023-10-13T01:07:15;1509.90;;;961.73;;
31091;SDS011;67728;53.122;12.776;2023-10-13T01:08:46;1510.93;;;964.73;;
31091;SDS011;67728;53.122;12.776;2023-10-13T01:10:21;1520.00;;;972.07;;
31091;SDS011;67728;53.122;12.776;2023-10-13T01:11:56;1528.80;;;980.90;;
31091;SDS011;67728;53.122;12.776;2023-10-13T01:13:30;1535.47;;;969.40;;
31091;SDS011;67728;53.122;12.776;2023-10-13T01:15:01;1527.67;;;973.57;;
31091;SDS011;67728;53.122;12.776;2023-10-13T01:16:38;1520.37;;;970.67;;
31091;SDS011;67728;53.122;12.776;2023-10-13T01:18:13;1528.23;;;965.27;;
31091;SDS011;67728;53.122;12.776;2023-10-13T01:19:44;1531.10;;;967.77;;
31091;SDS011;67728;53.122;12.776;2023-10-13T01:21:16;1526.10;;;969.70;;
31091;SDS011;67728;53.122;12.776;2023-10-13T01:22:51;1526.43;;;965.47;;
31091;SDS011;67728;53.122;12.776;2023-10-13T01:24:27;1536.00;;;965.27;;
31091;SDS011;67728;53.122;12.776;2023-10-13T01:26:01;1539.53;;;975.37;;
31091;SDS011;67728;53.122;12.776;2023-10-13T01:27:36;1552.07;;;970.93;;
31091;SDS011;67728;53.122;12.776;2023-10-13T01:29:08;1560.97;;;964.63;;
31091;SDS011;67728;53.122;12.776;2023-10-13T01:30:43;1569.20;;;954.70;;
31091;SDS011;67728;53.122;12.776;2023-10-13T01:32:21;1578.27;;;958.60;;
31091;SDS011;67728;53.122;12.776;2023-10-13T01:33:52;1589.27;;;974.27;;
31091;SDS011;67728;53.122;12.776;2023-10-13T01:35:24;1582.63;;;999.90;;
31091;SDS011;67728;53.122;12.776;2023-10-13T01:36:56;1741.67;;;999.90;;
31091;SDS011;67728;53.122;12.776;2023-10-13T01:38:35;1618.37;;;983.67;;
31091;SDS011;67728;53.122;12.776;2023-10-13T01:40:10;1456.57;;;913.77;;
31091;SDS011;67728;53.122;12.776;2023-10-13T01:41:42;1370.90;;;875.87;;
31091;SDS011;67728;53.122;12.776;2023-10-13T01:43:13;1372.77;;;886.77;;
31091;SDS011;67728;53.122;12.776;2023-10-13T01:44:45;1412.60;;;890.40;;
31091;SDS011;67728;53.122;12.776;2023-10-13T01:46:16;1430.33;;;902.13;;
31091;SDS011;67728;53.122;12.776;2023-10-13T01:47:50;1428.20;;;909.17;;
31091;SDS011;67728;53.122;12.776;2023-10-13T01:49:20;1438.43;;;903.63;;
31091;SDS011;67728;53.122;12.776;2023-10-13T01:50:55;1410.43;;;899.67;;
31091;SDS011;67728;53.122;12.776;2023-10-13T01:52:30;1421.13;;;902.40;;
31091;SDS011;67728;53.122;12.776;2023-10-13T01:54:01;1407.27;;;924.07;;
31091;SDS011;67728;53.122;12.776;2023-10-13T01:55:34;1410.50;;;941.70;;
31091;SDS011;67728;53.122;12.776;2023-10-13T01:57:09;1410.73;;;922.50;;
31091;SDS011;67728;53.122;12.776;2023-10-13T01:58:43;1432.93;;;926.63;;
31091;SDS011;67728;53.122;12.776;2023-10-13T02:00:17;1412.43;;;923.67;;
31091;SDS011;67728;53.122;12.776;2023-10-13T02:01:50;1435.53;;;920.67;;
31091;SDS011;67728;53.122;12.776;2023-10-13T02:03:25;1391.13;;;901.17;;
31091;SDS011;67728;53.122;12.776;2023-10-13T02:04:59;1430.90;;;896.67;;
31091;SDS011;67728;53.122;12.776;2023-10-13T02:06:32;1401.47;;;909.00;;
31091;SDS011;67728;53.122;12.776;2023-10-13T02:08:04;1344.63;;;905.60;;
31091;SDS011;67728;53.122;12.776;2023-10-13T02:09:36;1337.00;;;901.67;;
31091;SDS011;67728;53.122;12.776;2023-10-13T02:11:09;1353.43;;;914.93;;
31091;SDS011;67728;53.122;12.776;2023-10-13T02:12:39;1333.40;;;907.60;;
31091;SDS011;67728;53.122;12.776;2023-10-13T02:14:12;1426.67;;;912.90;;
31091;SDS011;67728;53.122;12.776;2023-10-13T02:15:46;1411.13;;;941.87;;
31091;SDS011;67728;53.122;12.776;2023-10-13T02:17:18;1662.23;;;999.90;;
31091;SDS011;67728;53.122;12.776;2023-10-13T02:18:51;1285.67;;;865.50;;
31091;SDS011;67728;53.122;12.776;2023-10-13T02:20:23;1238.13;;;845.80;;
31091;SDS011;67728;53.122;12.776;2023-10-13T02:21:55;1236.47;;;845.37;;
31091;SDS011;67728;53.122;12.776;2023-10-13T02:23:29;1242.30;;;842.63;;
31091;SDS011;67728;53.122;12.776;2023-10-13T02:25:00;1228.30;;;847.33;;
31091;SDS011;67728;53.122;12.776;2023-10-13T02:26:37;1226.17;;;843.33;;
31091;SDS011;67728;53.122;12.776;2023-10-13T02:28:09;1232.27;;;844.23;;
31091;SDS011;67728;53.122;12.776;2023-10-13T02:29:43;1229.03;;;837.60;;
31091;SDS011;67728;53.122;12.776;2023-10-13T02:31:19;1225.70;;;845.77;;
31091;SDS011;67728;53.122;12.776;2023-10-13T02:32:54;1225.20;;;837.67;;
31091;SDS011;67728;53.122;12.776;2023-10-13T02:34:25;1223.97;;;838.87;;
31091;SDS011;67728;53.122;12.776;2023-10-13T02:35:57;1233.07;;;842.47;;
31091;SDS011;67728;53.122;12.776;2023-10-13T02:37:28;1239.43;;;853.50;;
31091;SDS011;67728;53.122;12.776;2023-10-13T02:38:58;1248.30;;;842.67;;
31091;SDS011;67728;53.122;12.776;2023-10-13T02:40:37;1233.30;;;842.90;;
31091;SDS011;67728;53.122;12.776;2023-10-13T02:42:10;1230.17;;;843.80;;
31091;SDS011;67728;53.122;12.776;2023-10-13T02:43:53;1258.27;;;848.00;;
31091;SDS011;67728;53.122;12.776;2023-10-13T02:45:25;1251.53;;;848.43;;
31091;SDS011;67728;53.122;12.776;2023-10-13T02:46:56;1251.50;;;852.57;;
31091;SDS011;67728;53.122;12.776;2023-10-13T02:48:29;1264.90;;;867.17;;
31091;SDS011;67728;53.122;12.776;2023-10-13T02:50:09;1258.17;;;856.33;;
31091;SDS011;67728;53.122;12.776;2023-10-13T02:51:42;1253.70;;;858.33;;
31091;SDS011;67728;53.122;12.776;2023-10-13T02:53:14;1247.77;;;857.60;;
31091;SDS011;67728;53.122;12.776;2023-10-13T02:54:48;1249.93;;;863.77;;
31091;SDS011;67728;53.122;12.776;2023-10-13T02:56:20;1245.23;;;855.93;;
31091;SDS011;67728;53.122;12.776;2023-10-13T02:57:53;1245.17;;;866.33;;
31091;SDS011;67728;53.122;12.776;2023-10-13T02:59:26;1255.43;;;866.10;;
31091;SDS011;67728;53.122;12.776;2023-10-13T03:01:09;1249.43;;;861.20;;
31091;SDS011;67728;53.122;12.776;2023-10-13T03:02:47;1246.93;;;863.47;;
31091;SDS011;67728;53.122;12.776;2023-10-13T03:04:28;1236.87;;;854.70;;
31091;SDS011;67728;53.122;12.776;2023-10-13T03:05:58;1248.63;;;851.70;;
31091;SDS011;67728;53.122;12.776;2023-10-13T03:07:30;1237.77;;;847.00;;
31091;SDS011;67728;53.122;12.776;2023-10-13T03:09:02;1251.17;;;854.83;;
31091;SDS011;67728;53.122;12.776;2023-10-13T03:10:44;1243.83;;;857.73;;
31091;SDS011;67728;53.122;12.776;2023-10-13T03:12:19;1240.40;;;860.93;;
31091;SDS011;67728;53.122;12.776;2023-10-13T03:13:53;1241.27;;;848.77;;
31091;SDS011;67728;53.122;12.776;2023-10-13T03:15:23;1241.10;;;871.43;;
31091;SDS011;67728;53.122;12.776;2023-10-13T03:17:01;1236.83;;;866.77;;
31091;SDS011;67728;53.122;12.776;2023-10-13T03:18:33;1241.27;;;881.97;;
31091;SDS011;67728;53.122;12.776;2023-10-13T03:20:05;1231.30;;;868.50;;
31091;SDS011;67728;53.122;12.776;2023-10-13T03:21:41;1233.10;;;840.67;;
31091;SDS011;67728;53.122;12.776;2023-10-13T03:23:14;1233.47;;;870.83;;
31091;SDS011;67728;53.122;12.776;2023-10-13T03:24:46;1232.27;;;871.13;;
31091;SDS011;67728;53.122;12.776;2023-10-13T03:26:17;1226.10;;;875.13;;
31091;SDS011;67728;53.122;12.776;2023-10-13T03:27:50;1232.07;;;868.80;;
31091;SDS011;67728;53.122;12.776;2023-10-13T03:29:32;1226.47;;;862.50;;
31091;SDS011;67728;53.122;12.776;2023-10-13T03:31:05;1223.43;;;858.83;;
31091;SDS011;67728;53.122;12.776;2023-10-13T03:32:37;1237.37;;;859.47;;
31091;SDS011;67728;53.122;12.776;2023-10-13T03:34:13;1240.03;;;857.97;;
31091;SDS011;67728;53.122;12.776;2023-10-13T03:35:44;1224.07;;;872.03;;
31091;SDS011;67728;53.122;12.776;2023-10-13T03:37:23;1224.13;;;857.00;;
31091;SDS011;67728;53.122;12.776;2023-10-13T03:39:07;1224.63;;;851.83;;
31091;SDS011;67728;53.122;12.776;2023-10-13T03:40:41;1221.20;;;868.17;;
31091;SDS011;67728;53.122;12.776;2023-10-13T03:42:12;1223.27;;;861.97;;
31091;SDS011;67728;53.122;12.776;2023-10-13T03:43:49;1227.07;;;876.67;;
31091;SDS011;67728;53.122;12.776;2023-10-13T03:45:23;1221.60;;;886.73;;
31091;SDS011;67728;53.122;12.776;2023-10-13T03:46:56;1217.10;;;869.73;;
31091;SDS011;67728;53.122;12.776;2023-10-13T03:48:27;1223.67;;;874.17;;
31091;SDS011;67728;53.122;12.776;2023-10-13T03:50:01;1219.67;;;861.97;;
31091;SDS011;67728;53.122;12.776;2023-10-13T03:51:45;1224.97;;;878.80;;
31091;SDS011;67728;53.122;12.776;2023-10-13T03:53:18;1217.37;;;877.63;;
31091;SDS011;67728;53.122;12.776;2023-10-13T03:54:49;1215.63;;;880.13;;
31091;SDS011;67728;53.122;12.776;2023-10-13T03:56:23;1215.80;;;877.00;;
31091;SDS011;67728;53.122;12.776;2023-10-13T03:57:56;1219.80;;;874.87;;
31091;SDS011;67728;53.122;12.776;2023-10-13T03:59:30;1224.93;;;885.37;;
31091;SDS011;67728;53.122;12.776;2023-10-13T04:01:07;1219.00;;;873.30;;
31091;SDS011;67728;53.122;12.776;2023-10-13T04:02:39;1213.43;;;865.50;;
31091;SDS011;67728;53.122;12.776;2023-10-13T04:04:16;1231.77;;;881.17;;
31091;SDS011;67728;53.122;12.776;2023-10-13T04:06:04;1218.03;;;870.60;;
31091;SDS011;67728;53.122;12.776;2023-10-13T04:07:38;1212.63;;;873.07;;
31091;SDS011;67728;53.122;12.776;2023-10-13T04:09:31;1222.43;;;864.90;;
31091;SDS011;67728;53.122;12.776;2023-10-13T04:11:20;1217.27;;;874.03;;
31091;SDS011;67728;53.122;12.776;2023-10-13T04:13:29;1222.07;;;877.70;;
31091;SDS011;67728;53.122;12.776;2023-10-13T04:15:15;1225.37;;;889.13;;
31091;SDS011;67728;53.122;12.776;2023-10-13T04:16:51;1217.90;;;880.07;;
31091;SDS011;67728;53.122;12.776;2023-10-13T04:18:24;1211.63;;;873.67;;
31091;SDS011;67728;53.122;12.776;2023-10-13T04:20:04;1213.17;;;880.53;;
31091;SDS011;67728;53.122;12.776;2023-10-13T04:22:03;1215.03;;;881.23;;
31091;SDS011;67728;53.122;12.776;2023-10-13T04:23:44;1212.23;;;875.70;;
31091;SDS011;67728;53.122;12.776;2023-10-13T04:25:30;1221.77;;;879.33;;
31091;SDS011;67728;53.122;12.776;2023-10-13T04:27:05;1220.73;;;885.47;;
31091;SDS011;67728;53.122;12.776;2023-10-13T04:28:54;1227.73;;;887.80;;
31091;SDS011;67728;53.122;12.776;2023-10-13T04:30:26;1223.87;;;889.63;;
31091;SDS011;67728;53.122;12.776;2023-10-13T04:32:03;1217.97;;;884.40;;
31091;SDS011;67728;53.122;12.776;2023-10-13T04:33:43;1213.93;;;881.63;;
31091;SDS011;67728;53.122;12.776;2023-10-13T04:35:21;1218.80;;;885.87;;
31091;SDS011;67728;53.122;12.776;2023-10-13T04:36:54;1218.10;;;890.70;;
31091;SDS011;67728;53.122;12.776;2023-10-13T04:38:49;1223.53;;;875.43;;
31091;SDS011;67728;53.122;12.776;2023-10-13T04:40:30;1217.73;;;889.67;;
31091;SDS011;67728;53.122;12.776;2023-10-13T04:42:05;1218.53;;;886.50;;
31091;SDS011;67728;53.122;12.776;2023-10-13T04:43:57;1223.57;;;888.43;;
31091;SDS011;67728;53.122;12.776;2023-10-13T04:45:34;1228.27;;;888.67;;
31091;SDS011;67728;53.122;12.776;2023-10-13T04:47:24;1218.93;;;882.53;;
31091;SDS011;67728;53.122;12.776;2023-10-13T04:48:59;1211.17;;;880.20;;
31091;SDS011;67728;53.122;12.776;2023-10-13T04:50:37;1210.77;;;882.17;;
31091;SDS011;67728;53.122;12.776;2023-10-13T04:52:14;1209.37;;;878.60;;
31091;SDS011;67728;53.122;12.776;2023-10-13T04:54:09;1224.67;;;889.63;;
31091;SDS011;67728;53.122;12.776;2023-10-13T04:55:42;1209.03;;;881.83;;
31091;SDS011;67728;53.122;12.776;2023-10-13T04:57:29;1224.93;;;889.23;;
31091;SDS011;67728;53.122;12.776;2023-10-13T04:59:04;1225.87;;;888.10;;
31091;SDS011;67728;53.122;12.776;2023-10-13T05:01:02;1230.67;;;888.70;;
31091;SDS011;67728;53.122;12.776;2023-10-13T05:02:53;1224.23;;;891.17;;
31091;SDS011;67728;53.122;12.776;2023-10-13T05:04:40;1235.97;;;892.70;;
31091;SDS011;67728;53.122;12.776;2023-10-13T05:06:26;1229.63;;;891.27;;
31091;SDS011;67728;53.122;12.776;2023-10-13T05:08:15;1226.93;;;888.50;;
31091;SDS011;67728;53.122;12.776;2023-10-13T05:10:06;1228.97;;;882.73;;
31091;SDS011;67728;53.122;12.776;2023-10-13T05:11:55;1226.03;;;889.27;;
31091;SDS011;67728;53.122;12.776;2023-10-13T05:13:44;1226.27;;;892.83;;
31091;SDS011;67728;53.122;12.776;2023-10-13T05:15:33;1231.87;;;896.20;;
31091;SDS011;67728;53.122;12.776;2023-10-13T05:17:22;1230.00;;;885.23;;
31091;SDS011;67728;53.122;12.776;2023-10-13T05:19:11;1224.43;;;884.57;;
31091;SDS011;67728;53.122;12.776;2023-10-13T05:21:00;1227.60;;;896.90;;
31091;SDS011;67728;53.122;12.776;2023-10-13T05:22:49;1226.60;;;892.13;;
31091;SDS011;67728;53.122;12.776;2023-10-13T05:24:38;1230.30;;;889.83;;
31091;SDS011;67728;53.122;12.776;2023-10-13T05:26:28;1219.17;;;885.50;;
31091;SDS011;67728;53.122;12.776;2023-10-13T05:28:17;1223.33;;;895.93;;
31091;SDS011;67728;53.122;12.776;2023-10-13T05:30:07;1218.60;;;895.60;;
31091;SDS011;67728;53.122;12.776;2023-10-13T05:31:56;1216.07;;;893.87;;
31091;SDS011;67728;53.122;12.776;2023-10-13T05:33:45;1209.47;;;888.80;;
31091;SDS011;67728;53.122;12.776;2023-10-13T05:35:34;1230.70;;;879.00;;
31091;SDS011;67728;53.122;12.776;2023-10-13T05:37:23;1221.53;;;873.30;;
31091;SDS011;67728;53.122;12.776;2023-10-13T05:39:12;1273.27;;;874.83;;
31091;SDS011;67728;53.122;12.776;2023-10-13T05:41:02;1276.33;;;876.93;;
31091;SDS011;67728;53.122;12.776;2023-10-13T05:42:54;1274.90;;;883.27;;
31091;SDS011;67728;53.122;12.776;2023-10-13T05:44:42;1320.50;;;883.43;;
31091;SDS011;67728;53.122;12.776;2023-10-13T05:46:26;1228.27;;;881.00;;
31091;SDS011;67728;53.122;12.776;2023-10-13T05:48:19;1223.73;;;879.30;;
31091;SDS011;67728;53.122;12.776;2023-10-13T05:50:05;1222.47;;;880.57;;
31091;SDS011;67728;53.122;12.776;2023-10-13T05:51:43;1224.60;;;878.67;;
31091;SDS011;67728;53.122;12.776;2023-10-13T05:53:17;1219.03;;;893.47;;
31091;SDS011;67728;53.122;12.776;2023-10-13T05:55:06;1214.97;;;888.77;;
31091;SDS011;67728;53.122;12.776;2023-10-13T05:56:55;1220.47;;;891.83;;
31091;SDS011;67728;53.122;12.776;2023-10-13T05:58:46;1226.47;;;893.77;;
31091;SDS011;67728;53.122;12.776;2023-10-13T06:00:37;1217.67;;;899.67;;
31091;SDS011;67728;53.122;12.776;2023-10-13T06:02:35;1228.80;;;902.27;;
31091;SDS011;67728;53.122;12.776;2023-10-13T06:04:23;1227.80;;;905.67;;
31091;SDS011;67728;53.122;12.776;2023-10-13T06:06:13;1226.70;;;904.53;;
31091;SDS011;67728;53.122;12.776;2023-10-13T06:08:02;1225.50;;;898.00;;
31091;SDS011;67728;53.122;12.776;2023-10-13T06:09:51;1231.73;;;906.77;;
31091;SDS011;67728;53.122;12.776;2023-10-13T06:11:40;1227.73;;;899.67;;
31091;SDS011;67728;53.122;12.776;2023-10-13T06:13:29;1228.97;;;903.03;;
31091;SDS011;67728;53.122;12.776;2023-10-13T06:15:19;1234.07;;;894.93;;
31091;SDS011;67728;53.122;12.776;2023-10-13T06:17:08;1235.40;;;896.93;;
31091;SDS011;67728;53.122;12.776;2023-10-13T06:18:57;1230.60;;;894.00;;
31091;SDS011;67728;53.122;12.776;2023-10-13T06:20:46;1223.00;;;886.93;;
31091;SDS011;67728;53.122;12.776;2023-10-13T06:22:35;1222.57;;;889.20;;
31091;SDS011;67728;53.122;12.776;2023-10-13T06:24:20;1224.57;;;892.00;;
31091;SDS011;67728;53.122;12.776;2023-10-13T06:26:09;1225.10;;;895.10;;
31091;SDS011;67728;53.122;12.776;2023-10-13T06:27:58;1214.50;;;890.53;;
31091;SDS011;67728;53.122;12.776;2023-10-13T06:29:47;1236.00;;;904.30;;
31091;SDS011;67728;53.122;12.776;2023-10-13T06:31:20;1215.40;;;913.27;;
31091;SDS011;67728;53.122;12.776;2023-10-13T06:32:51;1210.03;;;910.97;;
31091;SDS011;67728;53.122;12.776;2023-10-13T06:34:23;1226.47;;;922.97;;
31091;SDS011;67728;53.122;12.776;2023-10-13T06:36:07;1219.87;;;909.60;;
31091;SDS011;67728;53.122;12.776;2023-10-13T06:37:39;1216.57;;;912.93;;
31091;SDS011;67728;53.122;12.776;2023-10-13T06:39:12;1219.83;;;928.43;;
31091;SDS011;67728;53.122;12.776;2023-10-13T06:40:58;1219.27;;;921.77;;
31091;SDS011;67728;53.122;12.776;2023-10-13T06:42:29;1223.10;;;923.10;;
31091;SDS011;67728;53.122;12.776;2023-10-13T06:44:04;1220.00;;;919.47;;
31091;SDS011;67728;53.122;12.776;2023-10-13T06:45:45;1230.50;;;932.23;;
31091;SDS011;67728;53.122;12.776;2023-10-13T06:47:22;1225.63;;;936.17;;
31091;SDS011;67728;53.122;12.776;2023-10-13T06:48:55;1226.23;;;937.30;;
31091;SDS011;67728;53.122;12.776;2023-10-13T06:50:25;1225.33;;;937.63;;
31091;SDS011;67728;53.122;12.776;2023-10-13T06:51:59;1226.63;;;938.60;;
31091;SDS011;67728;53.122;12.776;2023-10-13T06:53:30;1216.90;;;938.57;;
31091;SDS011;67728;53.122;12.776;2023-10-13T06:55:06;1258.20;;;939.60;;
31091;SDS011;67728;53.122;12.776;2023-10-13T06:56:40;1217.00;;;934.90;;
31091;SDS011;67728;53.122;12.776;2023-10-13T06:58:11;1218.10;;;925.17;;
31091;SDS011;67728;53.122;12.776;2023-10-13T06:59:43;1220.90;;;931.00;;
31091;SDS011;67728;53.122;12.776;2023-10-13T07:01:14;1217.63;;;926.50;;
31091;SDS011;67728;53.122;12.776;2023-10-13T07:02:53;1219.60;;;919.30;;
31091;SDS011;67728;53.122;12.776;2023-10-13T07:04:23;1221.13;;;923.77;;
31091;SDS011;67728;53.122;12.776;2023-10-13T07:05:56;1219.50;;;924.07;;
31091;SDS011;67728;53.122;12.776;2023-10-13T07:07:29;1227.30;;;930.73;;
31091;SDS011;67728;53.122;12.776;2023-10-13T07:09:02;1226.33;;;934.83;;
31091;SDS011;67728;53.122;12.776;2023-10-13T07:10:35;1227.67;;;936.90;;
31091;SDS011;67728;53.122;12.776;2023-10-13T07:12:14;1232.17;;;930.83;;
31091;SDS011;67728;53.122;12.776;2023-10-13T07:13:46;1233.93;;;938.47;;
31091;SDS011;67728;53.122;12.776;2023-10-13T07:15:21;1231.80;;;937.23;;
31091;SDS011;67728;53.122;12.776;2023-10-13T07:16:59;1243.87;;;938.23;;
31091;SDS011;67728;53.122;12.776;2023-10-13T07:18:34;1227.13;;;937.90;;
31091;SDS011;67728;53.122;12.776;2023-10-13T07:20:07;1241.37;;;934.70;;
31091;SDS011;67728;53.122;12.776;2023-10-13T07:21:45;1228.40;;;951.87;;
31091;SDS011;67728;53.122;12.776;2023-10-13T07:23:16;1223.10;;;954.10;;
31091;SDS011;67728;53.122;12.776;2023-10-13T07:24:50;1217.87;;;944.30;;
31091;SDS011;67728;53.122;12.776;2023-10-13T07:26:21;1218.30;;;948.33;;
31091;SDS011;67728;53.122;12.776;2023-10-13T07:27:53;1218.27;;;949.17;;
31091;SDS011;67728;53.122;12.776;2023-10-13T07:29:26;1230.67;;;940.10;;
31091;SDS011;67728;53.122;12.776;2023-10-13T07:30:58;1225.10;;;945.33;;
31091;SDS011;67728;53.122;12.776;2023-10-13T07:32:42;1230.20;;;946.20;;
31091;SDS011;67728;53.122;12.776;2023-10-13T07:34:17;1226.87;;;946.80;;
31091;SDS011;67728;53.122;12.776;2023-10-13T07:35:59;1237.50;;;945.00;;
31091;SDS011;67728;53.122;12.776;2023-10-13T07:37:31;1217.87;;;939.43;;
31091;SDS011;67728;53.122;12.776;2023-10-13T07:39:03;1231.77;;;950.50;;
31091;SDS011;67728;53.122;12.776;2023-10-13T07:40:50;1237.20;;;946.63;;
31091;SDS011;67728;53.122;12.776;2023-10-13T07:42:22;1227.03;;;953.23;;
31091;SDS011;67728;53.122;12.776;2023-10-13T07:43:52;1226.00;;;954.20;;
31091;SDS011;67728;53.122;12.776;2023-10-13T07:45:27;1221.83;;;955.70;;
31091;SDS011;67728;53.122;12.776;2023-10-13T07:47:06;1236.87;;;960.70;;
31091;SDS011;67728;53.122;12.776;2023-10-13T07:48:40;1236.57;;;963.77;;
31091;SDS011;67728;53.122;12.776;2023-10-13T07:50:17;1238.57;;;967.33;;
31091;SDS011;67728;53.122;12.776;2023-10-13T07:51:55;1247.53;;;969.37;;
31091;SDS011;67728;53.122;12.776;2023-10-13T07:53:27;1241.73;;;973.67;;
31091;SDS011;67728;53.122;12.776;2023-10-13T07:55:04;1240.03;;;969.60;;
31091;SDS011;67728;53.122;12.776;2023-10-13T07:56:50;1242.27;;;970.63;;
31091;SDS011;67728;53.122;12.776;2023-10-13T07:58:24;1242.43;;;970.10;;
31091;SDS011;67728;53.122;12.776;2023-10-13T07:59:56;1243.57;;;974.47;;
31091;SDS011;67728;53.122;12.776;2023-10-13T08:01:40;1248.47;;;978.40;;
31091;SDS011;67728;53.122;12.776;2023-10-13T08:03:13;1243.73;;;975.67;;
31091;SDS011;67728;53.122;12.776;2023-10-13T08:05:02;1290.83;;;971.70;;
31091;SDS011;67728;53.122;12.776;2023-10-13T08:06:36;1248.37;;;971.43;;
31091;SDS011;67728;53.122;12.776;2023-10-13T08:08:06;1243.63;;;981.33;;
31091;SDS011;67728;53.122;12.776;2023-10-13T08:09:44;1249.07;;;969.17;;
31091;SDS011;67728;53.122;12.776;2023-10-13T08:11:21;1252.00;;;968.57;;
31091;SDS011;67728;53.122;12.776;2023-10-13T08:12:57;1246.87;;;958.50;;
31091;SDS011;67728;53.122;12.776;2023-10-13T08:14:29;1268.80;;;967.03;;
31091;SDS011;67728;53.122;12.776;2023-10-13T08:16:04;1252.10;;;970.30;;
31091;SDS011;67728;53.122;12.776;2023-10-13T08:17:38;1248.43;;;964.50;;
31091;SDS011;67728;53.122;12.776;2023-10-13T08:19:14;1258.53;;;966.43;;
31091;SDS011;67728;53.122;12.776;2023-10-13T08:20:47;1245.33;;;973.93;;
31091;SDS011;67728;53.122;12.776;2023-10-13T08:22:19;1242.40;;;971.13;;
31091;SDS011;67728;53.122;12.776;2023-10-13T08:23:56;1238.70;;;963.10;;
31091;SDS011;67728;53.122;12.776;2023-10-13T08:25:29;1235.17;;;967.60;;
31091;SDS011;67728;53.122;12.776;2023-10-13T08:27:24;1249.93;;;958.83;;
31091;SDS011;67728;53.122;12.776;2023-10-13T08:29:04;1260.20;;;968.00;;
31091;SDS011;67728;53.122;12.776;2023-10-13T08:30:50;1243.17;;;965.53;;
31091;SDS011;67728;53.122;12.776;2023-10-13T08:32:27;1238.10;;;957.63;;
31091;SDS011;67728;53.122;12.776;2023-10-13T08:34:15;1246.50;;;966.63;;
31091;SDS011;67728;53.122;12.776;2023-10-13T08:35:53;1245.63;;;975.10;;
31091;SDS011;67728;53.122;12.776;2023-10-13T08:37:59;1257.57;;;975.90;;
31091;SDS011;67728;53.122;12.776;2023-10-13T08:39:34;1241.73;;;976.83;;
31091;SDS011;67728;53.122;12.776;2023-10-13T08:41:19;1246.57;;;980.83;;
31091;SDS011;67728;53.122;12.776;2023-10-13T08:43:01;1315.90;;;979.20;;
31091;SDS011;67728;53.122;12.776;2023-10-13T08:44:41;1273.60;;;971.93;;
31091;SDS011;67728;53.122;12.776;2023-10-13T08:46:17;1239.73;;;965.07;;
31091;SDS011;67728;53.122;12.776;2023-10-13T08:47:59;1235.93;;;963.13;;
31091;SDS011;67728;53.122;12.776;2023-10-13T08:49:42;1236.20;;;965.97;;
31091;SDS011;67728;53.122;12.776;2023-10-13T08:51:20;1246.87;;;979.10;;
31091;SDS011;67728;53.122;12.776;2023-10-13T08:53:14;1247.43;;;977.30;;
31091;SDS011;67728;53.122;12.776;2023-10-13T08:54:56;1259.53;;;976.60;;
31091;SDS011;67728;53.122;12.776;2023-10-13T08:57:03;1254.80;;;973.67;;
31091;SDS011;67728;53.122;12.776;2023-10-13T08:58:50;1240.30;;;971.13;;
31091;SDS011;67728;53.122;12.776;2023-10-13T09:00:35;1270.17;;;966.80;;
31091;SDS011;67728;53.122;12.776;2023-10-13T09:02:36;1242.73;;;979.00;;